sensor_id;sensor_type;location;lat;lon;timestamp;P1;durP1;ratioP1;P2;durP2;ratioP2
25639;SDS011;13497;48.322;16.204;2022-09-20T00:00:26;64.50;;;17.05;;
25639;SDS011;13497;48.322;16.204;2022-09-20T00:02:52;38.53;;;14.27;;
25639;SDS011;13497;48.322;16.204;2022-09-20T00:05:18;27.80;;;8.97;;
25639;SDS011;13497;48.322;16.204;2022-09-20T00:07:44;18.47;;;7.27;;
25639;SDS011;13497;48.322;16.204;2022-09-20T00:10:09;11.00;;;4.20;;
25639;SDS011;13497;48.322;16.204;2022-09-20T00:12:36;16.60;;;5.88;;
25639;SDS011;13497;48.322;16.204;2022-09-20T00:15:02;11.80;;;5.13;;
25639;SDS011;13497;48.322;16.204;2022-09-20T00:17:29;8.20;;;4.47;;
25639;SDS011;13497;48.322;16.204;2022-09-20T00:19:54;9.10;;;4.03;;
25639;SDS011;13497;48.322;16.204;2022-09-20T00:22:20;12.03;;;5.03;;
25639;SDS011;13497;48.322;16.204;2022-09-20T00:24:45;7.77;;;1.97;;
25639;SDS011;13497;48.322;16.204;2022-09-20T00:27:11;8.80;;;3.50;;
25639;SDS011;13497;48.322;16.204;2022-09-20T00:29:37;39.03;;;12.18;;
25639;SDS011;13497;48.322;16.204;2022-09-20T00:32:04;35.35;;;11.48;;
25639;SDS011;13497;48.322;16.204;2022-09-20T00:34:30;26.93;;;9.60;;
25639;SDS011;13497;48.322;16.204;2022-09-20T00:37:14;23.02;;;7.65;;
25639;SDS011;13497;48.322;16.204;2022-09-20T00:39:39;74.83;;;24.43;;
25639;SDS011;13497;48.322;16.204;2022-09-20T00:42:05;54.70;;;17.00;;
25639;SDS011;13497;48.322;16.204;2022-09-20T00:44:46;65.63;;;16.65;;
25639;SDS011;13497;48.322;16.204;2022-09-20T00:47:21;47.67;;;14.77;;
25639;SDS011;13497;48.322;16.204;2022-09-20T00:50:01;33.65;;;10.02;;
25639;SDS011;13497;48.322;16.204;2022-09-20T00:52:47;6.43;;;1.90;;
25639;SDS011;13497;48.322;16.204;2022-09-20T00:55:18;7.18;;;4.05;;
25639;SDS011;13497;48.322;16.204;2022-09-20T00:57:44;3.80;;;2.72;;
25639;SDS011;13497;48.322;16.204;2022-09-20T01:00:11;50.17;;;14.30;;
25639;SDS011;13497;48.322;16.204;2022-09-20T01:02:39;53.10;;;11.45;;
25639;SDS011;13497;48.322;16.204;2022-09-20T01:05:08;69.88;;;19.27;;
25639;SDS011;13497;48.322;16.204;2022-09-20T01:07:36;34.13;;;9.80;;
25639;SDS011;13497;48.322;16.204;2022-09-20T01:10:02;23.13;;;9.52;;
25639;SDS011;13497;48.322;16.204;2022-09-20T01:12:29;7.80;;;3.15;;
25639;SDS011;13497;48.322;16.204;2022-09-20T01:14:58;12.82;;;6.15;;
25639;SDS011;13497;48.322;16.204;2022-09-20T01:17:26;7.72;;;3.00;;
25639;SDS011;13497;48.322;16.204;2022-09-20T01:28:32;2.78;;;2.00;;
25639;SDS011;13497;48.322;16.204;2022-09-20T01:36:20;1.33;;;1.23;;
25639;SDS011;13497;48.322;16.204;2022-09-20T01:38:55;1.30;;;1.00;;
25639;SDS011;13497;48.322;16.204;2022-09-20T01:41:33;5.70;;;2.28;;
25639;SDS011;13497;48.322;16.204;2022-09-20T01:46:49;1.10;;;0.95;;
25639;SDS011;13497;48.322;16.204;2022-09-20T01:49:28;1.00;;;0.85;;
25639;SDS011;13497;48.322;16.204;2022-09-20T01:52:30;0.80;;;0.47;;
25639;SDS011;13497;48.322;16.204;2022-09-20T01:58:35;0.80;;;0.63;;
25639;SDS011;13497;48.322;16.204;2022-09-20T02:13:59;0.50;;;0.50;;
25639;SDS011;13497;48.322;16.204;2022-09-20T02:20:06;0.47;;;0.40;;
25639;SDS011;13497;48.322;16.204;2022-09-20T02:31:26;13.25;;;4.55;;
25639;SDS011;13497;48.322;16.204;2022-09-20T02:36:57;9.18;;;4.00;;
25639;SDS011;13497;48.322;16.204;2022-09-20T02:39:47;7.20;;;4.10;;
25639;SDS011;13497;48.322;16.204;2022-09-20T02:45:08;1.80;;;1.45;;
25639;SDS011;13497;48.322;16.204;2022-09-20T02:47:52;3.30;;;2.40;;
25639;SDS011;13497;48.322;16.204;2022-09-20T03:01:12;7.75;;;3.08;;
25639;SDS011;13497;48.322;16.204;2022-09-20T03:09:38;8.27;;;2.60;;
25639;SDS011;13497;48.322;16.204;2022-09-20T03:15:28;1.60;;;1.20;;
25639;SDS011;13497;48.322;16.204;2022-09-20T03:18:14;11.50;;;3.92;;
25639;SDS011;13497;48.322;16.204;2022-09-20T03:32:01;4.35;;;2.38;;
25639;SDS011;13497;48.322;16.204;2022-09-20T03:42:53;1.67;;;1.30;;
25639;SDS011;13497;48.322;16.204;2022-09-20T03:48:34;2.40;;;1.75;;
25639;SDS011;13497;48.322;16.204;2022-09-20T04:00:00;0.73;;;0.47;;
25639;SDS011;13497;48.322;16.204;2022-09-20T04:02:42;0.80;;;0.63;;
25639;SDS011;13497;48.322;16.204;2022-09-20T04:05:33;1.42;;;0.70;;
25639;SDS011;13497;48.322;16.204;2022-09-20T04:13:49;0.60;;;0.52;;
25639;SDS011;13497;48.322;16.204;2022-09-20T04:16:50;0.82;;;0.50;;
25639;SDS011;13497;48.322;16.204;2022-09-20T04:22:10;0.77;;;0.75;;
25639;SDS011;13497;48.322;16.204;2022-09-20T04:27:27;1.23;;;1.10;;
25639;SDS011;13497;48.322;16.204;2022-09-20T04:39:39;0.77;;;0.50;;
25639;SDS011;13497;48.322;16.204;2022-09-20T04:47:27;1.27;;;1.17;;
25639;SDS011;13497;48.322;16.204;2022-09-20T04:50:14;0.70;;;0.70;;
25639;SDS011;13497;48.322;16.204;2022-09-20T04:56:02;2.47;;;1.58;;
25639;SDS011;13497;48.322;16.204;2022-09-20T05:01:57;2.20;;;1.25;;
25639;SDS011;13497;48.322;16.204;2022-09-20T05:15:22;3.78;;;2.45;;
25639;SDS011;13497;48.322;16.204;2022-09-20T05:31:10;1.90;;;1.40;;
25639;SDS011;13497;48.322;16.204;2022-09-20T05:36:42;2.58;;;1.58;;
25639;SDS011;13497;48.322;16.204;2022-09-20T05:39:35;2.92;;;1.30;;
25639;SDS011;13497;48.322;16.204;2022-09-20T05:42:14;2.45;;;1.27;;
25639;SDS011;13497;48.322;16.204;2022-09-20T05:51:04;2.25;;;1.58;;
25639;SDS011;13497;48.322;16.204;2022-09-20T06:01:40;2.15;;;1.05;;
25639;SDS011;13497;48.322;16.204;2022-09-20T06:04:28;2.72;;;1.05;;
25639;SDS011;13497;48.322;16.204;2022-09-20T06:07:22;0.80;;;0.80;;
25639;SDS011;13497;48.322;16.204;2022-09-20T06:13:00;1.60;;;0.90;;
25639;SDS011;13497;48.322;16.204;2022-09-20T06:15:49;3.45;;;1.13;;
25639;SDS011;13497;48.322;16.204;2022-09-20T06:24:24;0.82;;;0.80;;
25639;SDS011;13497;48.322;16.204;2022-09-20T06:26:58;1.25;;;1.02;;
25639;SDS011;13497;48.322;16.204;2022-09-20T06:29:29;1.60;;;1.25;;
25639;SDS011;13497;48.322;16.204;2022-09-20T06:31:59;0.73;;;0.68;;
25639;SDS011;13497;48.322;16.204;2022-09-20T06:34:24;1.50;;;1.00;;
25639;SDS011;13497;48.322;16.204;2022-09-20T06:37:13;3.45;;;1.00;;
25639;SDS011;13497;48.322;16.204;2022-09-20T06:40:13;1.10;;;1.00;;
25639;SDS011;13497;48.322;16.204;2022-09-20T06:43:19;2.03;;;1.35;;
25639;SDS011;13497;48.322;16.204;2022-09-20T06:45:45;0.70;;;0.70;;
25639;SDS011;13497;48.322;16.204;2022-09-20T06:48:12;1.60;;;0.82;;
25639;SDS011;13497;48.322;16.204;2022-09-20T06:50:39;1.42;;;1.10;;
25639;SDS011;13497;48.322;16.204;2022-09-20T06:53:09;12.65;;;6.15;;
25639;SDS011;13497;48.322;16.204;2022-09-20T06:55:42;7.80;;;3.75;;
25639;SDS011;13497;48.322;16.204;2022-09-20T06:58:19;5.32;;;1.67;;
25639;SDS011;13497;48.322;16.204;2022-09-20T07:00:44;5.87;;;2.67;;
25639;SDS011;13497;48.322;16.204;2022-09-20T07:06:32;7.82;;;3.65;;
25639;SDS011;13497;48.322;16.204;2022-09-20T07:08:58;4.80;;;2.97;;
25639;SDS011;13497;48.322;16.204;2022-09-20T07:11:24;2.37;;;1.10;;
25639;SDS011;13497;48.322;16.204;2022-09-20T07:13:50;36.00;;;11.63;;
25639;SDS011;13497;48.322;16.204;2022-09-20T07:16:18;15.70;;;7.32;;
25639;SDS011;13497;48.322;16.204;2022-09-20T07:18:44;32.08;;;8.30;;
25639;SDS011;13497;48.322;16.204;2022-09-20T07:21:10;31.83;;;11.57;;
25639;SDS011;13497;48.322;16.204;2022-09-20T07:23:39;11.30;;;5.97;;
25639;SDS011;13497;48.322;16.204;2022-09-20T07:26:05;4.63;;;2.35;;
25639;SDS011;13497;48.322;16.204;2022-09-20T07:28:40;3.50;;;2.35;;
25639;SDS011;13497;48.322;16.204;2022-09-20T07:31:05;5.23;;;2.03;;
25639;SDS011;13497;48.322;16.204;2022-09-20T07:33:31;21.33;;;9.17;;
25639;SDS011;13497;48.322;16.204;2022-09-20T07:35:56;22.10;;;7.60;;
25639;SDS011;13497;48.322;16.204;2022-09-20T07:38:22;28.70;;;8.17;;
25639;SDS011;13497;48.322;16.204;2022-09-20T07:40:58;14.30;;;6.25;;
25639;SDS011;13497;48.322;16.204;2022-09-20T07:43:25;3.22;;;1.50;;
25639;SDS011;13497;48.322;16.204;2022-09-20T07:45:51;4.68;;;2.92;;
25639;SDS011;13497;48.322;16.204;2022-09-20T07:48:41;3.40;;;1.35;;
25639;SDS011;13497;48.322;16.204;2022-09-20T07:51:09;1.80;;;1.42;;
25639;SDS011;13497;48.322;16.204;2022-09-20T07:53:37;21.10;;;10.05;;
25639;SDS011;13497;48.322;16.204;2022-09-20T07:58:34;6.20;;;2.53;;
25639;SDS011;13497;48.322;16.204;2022-09-20T08:01:04;7.30;;;3.22;;
25639;SDS011;13497;48.322;16.204;2022-09-20T08:03:31;8.30;;;3.78;;
25639;SDS011;13497;48.322;16.204;2022-09-20T08:06:01;2.00;;;1.80;;
25639;SDS011;13497;48.322;16.204;2022-09-20T08:08:33;9.50;;;3.80;;
25639;SDS011;13497;48.322;16.204;2022-09-20T08:13:30;11.40;;;5.55;;
25639;SDS011;13497;48.322;16.204;2022-09-20T08:16:00;15.95;;;7.10;;
25639;SDS011;13497;48.322;16.204;2022-09-20T08:18:27;8.80;;;4.10;;
25639;SDS011;13497;48.322;16.204;2022-09-20T08:20:53;88.57;;;32.93;;
25639;SDS011;13497;48.322;16.204;2022-09-20T08:23:19;22.20;;;10.25;;
25639;SDS011;13497;48.322;16.204;2022-09-20T08:25:45;1.10;;;0.93;;
25639;SDS011;13497;48.322;16.204;2022-09-20T08:28:12;14.20;;;4.03;;
25639;SDS011;13497;48.322;16.204;2022-09-20T08:30:38;20.73;;;6.72;;
25639;SDS011;13497;48.322;16.204;2022-09-20T08:33:03;33.30;;;11.13;;
25639;SDS011;13497;48.322;16.204;2022-09-20T08:35:33;9.05;;;4.43;;
25639;SDS011;13497;48.322;16.204;2022-09-20T08:37:59;46.22;;;16.10;;
25639;SDS011;13497;48.322;16.204;2022-09-20T08:40:25;34.40;;;11.33;;
25639;SDS011;13497;48.322;16.204;2022-09-20T08:42:53;30.73;;;10.77;;
25639;SDS011;13497;48.322;16.204;2022-09-20T08:45:23;17.80;;;8.77;;
25639;SDS011;13497;48.322;16.204;2022-09-20T08:47:54;15.40;;;6.82;;
25639;SDS011;13497;48.322;16.204;2022-09-20T08:50:23;37.53;;;10.93;;
25639;SDS011;13497;48.322;16.204;2022-09-20T08:52:50;88.82;;;27.25;;
25639;SDS011;13497;48.322;16.204;2022-09-20T08:55:22;17.88;;;7.10;;
25639;SDS011;13497;48.322;16.204;2022-09-20T08:57:53;19.10;;;8.18;;
25639;SDS011;13497;48.322;16.204;2022-09-20T09:00:22;27.00;;;6.65;;
25639;SDS011;13497;48.322;16.204;2022-09-20T09:02:57;30.30;;;7.40;;
25639;SDS011;13497;48.322;16.204;2022-09-20T09:07:55;42.53;;;13.00;;
25639;SDS011;13497;48.322;16.204;2022-09-20T09:10:24;45.30;;;15.18;;
25639;SDS011;13497;48.322;16.204;2022-09-20T09:12:52;68.18;;;19.67;;
25639;SDS011;13497;48.322;16.204;2022-09-20T09:15:26;13.75;;;4.28;;
25639;SDS011;13497;48.322;16.204;2022-09-20T09:17:58;3.83;;;2.15;;
25639;SDS011;13497;48.322;16.204;2022-09-20T09:20:23;10.33;;;4.23;;
25639;SDS011;13497;48.322;16.204;2022-09-20T09:23:05;4.18;;;1.58;;
25639;SDS011;13497;48.322;16.204;2022-09-20T09:25:38;9.27;;;3.63;;
25639;SDS011;13497;48.322;16.204;2022-09-20T09:30:38;18.80;;;6.47;;
25639;SDS011;13497;48.322;16.204;2022-09-20T09:41:03;17.05;;;5.13;;
25639;SDS011;13497;48.322;16.204;2022-09-20T09:43:35;1.80;;;0.60;;
25639;SDS011;13497;48.322;16.204;2022-09-20T09:46:14;1.65;;;0.35;;
25639;SDS011;13497;48.322;16.204;2022-09-20T09:49:02;6.00;;;2.08;;
25639;SDS011;13497;48.322;16.204;2022-09-20T09:51:31;9.27;;;3.30;;
25639;SDS011;13497;48.322;16.204;2022-09-20T09:53:57;2.03;;;1.05;;
25639;SDS011;13497;48.322;16.204;2022-09-20T09:59:08;0.88;;;0.32;;
25639;SDS011;13497;48.322;16.204;2022-09-20T10:02:08;0.90;;;0.30;;
25639;SDS011;13497;48.322;16.204;2022-09-20T10:05:03;0.85;;;0.55;;
25639;SDS011;13497;48.322;16.204;2022-09-20T10:13:46;2.15;;;1.05;;
25639;SDS011;13497;48.322;16.204;2022-09-20T10:18:48;3.00;;;0.50;;
25639;SDS011;13497;48.322;16.204;2022-09-20T10:24:51;0.10;;;0.10;;
25639;SDS011;13497;48.322;16.204;2022-09-20T10:27:33;0.70;;;0.20;;
25639;SDS011;13497;48.322;16.204;2022-09-20T10:30:18;0.10;;;0.10;;
25639;SDS011;13497;48.322;16.204;2022-09-20T10:35:36;0.10;;;0.00;;
25639;SDS011;13497;48.322;16.204;2022-09-20T10:38:22;0.55;;;0.20;;
25639;SDS011;13497;48.322;16.204;2022-09-20T10:47:16;0.40;;;0.20;;
25639;SDS011;13497;48.322;16.204;2022-09-20T10:57:19;0.00;;;0.00;;
25639;SDS011;13497;48.322;16.204;2022-09-20T11:08:27;0.35;;;0.30;;
25639;SDS011;13497;48.322;16.204;2022-09-20T11:10:58;0.77;;;0.50;;
25639;SDS011;13497;48.322;16.204;2022-09-20T11:19:23;1.00;;;0.30;;
25639;SDS011;13497;48.322;16.204;2022-09-20T11:22:01;0.57;;;0.57;;
25639;SDS011;13497;48.322;16.204;2022-09-20T11:24:35;1.08;;;0.98;;
25639;SDS011;13497;48.322;16.204;2022-09-20T11:32:39;1.23;;;0.52;;
25639;SDS011;13497;48.322;16.204;2022-09-20T11:40:38;3.15;;;0.30;;
25639;SDS011;13497;48.322;16.204;2022-09-20T11:43:09;0.00;;;0.00;;
25639;SDS011;13497;48.322;16.204;2022-09-20T11:45:38;0.20;;;0.20;;
25639;SDS011;13497;48.322;16.204;2022-09-20T11:48:18;2.40;;;0.52;;
25639;SDS011;13497;48.322;16.204;2022-09-20T11:51:02;0.10;;;0.10;;
25639;SDS011;13497;48.322;16.204;2022-09-20T11:56:27;1.23;;;0.30;;
25639;SDS011;13497;48.322;16.204;2022-09-20T11:58:56;0.45;;;0.15;;
25639;SDS011;13497;48.322;16.204;2022-09-20T12:01:25;0.22;;;0.20;;
25639;SDS011;13497;48.322;16.204;2022-09-20T12:04:03;0.73;;;0.20;;
25639;SDS011;13497;48.322;16.204;2022-09-20T12:06:36;0.30;;;0.30;;
25639;SDS011;13497;48.322;16.204;2022-09-20T12:09:05;0.43;;;0.43;;
25639;SDS011;13497;48.322;16.204;2022-09-20T12:11:46;0.25;;;0.25;;
25639;SDS011;13497;48.322;16.204;2022-09-20T12:14:17;0.63;;;0.60;;
25639;SDS011;13497;48.322;16.204;2022-09-20T12:16:51;0.20;;;0.20;;
25639;SDS011;13497;48.322;16.204;2022-09-20T12:24:36;0.10;;;0.10;;
25639;SDS011;13497;48.322;16.204;2022-09-20T12:30:06;0.35;;;0.20;;
25639;SDS011;13497;48.322;16.204;2022-09-20T12:32:51;0.40;;;0.20;;
25639;SDS011;13497;48.322;16.204;2022-09-20T12:43:35;0.20;;;0.20;;
25639;SDS011;13497;48.322;16.204;2022-09-20T12:46:16;0.45;;;0.10;;
25639;SDS011;13497;48.322;16.204;2022-09-20T12:48:49;0.10;;;0.10;;
25639;SDS011;13497;48.322;16.204;2022-09-20T12:51:16;0.25;;;0.25;;
25639;SDS011;13497;48.322;16.204;2022-09-20T12:54:05;0.32;;;0.20;;
25639;SDS011;13497;48.322;16.204;2022-09-20T12:56:36;0.68;;;0.30;;
25639;SDS011;13497;48.322;16.204;2022-09-20T12:59:04;0.20;;;0.20;;
25639;SDS011;13497;48.322;16.204;2022-09-20T13:01:45;0.10;;;0.10;;
25639;SDS011;13497;48.322;16.204;2022-09-20T13:07:48;1.33;;;0.32;;
25639;SDS011;13497;48.322;16.204;2022-09-20T13:10:19;0.10;;;0.10;;
25639;SDS011;13497;48.322;16.204;2022-09-20T13:12:53;0.20;;;0.10;;
25639;SDS011;13497;48.322;16.204;2022-09-20T13:15:23;0.35;;;0.25;;
25639;SDS011;13497;48.322;16.204;2022-09-20T13:17:49;0.57;;;0.20;;
25639;SDS011;13497;48.322;16.204;2022-09-20T13:20:22;0.85;;;0.25;;
25639;SDS011;13497;48.322;16.204;2022-09-20T13:22:54;0.30;;;0.10;;
25639;SDS011;13497;48.322;16.204;2022-09-20T13:25:22;0.13;;;0.10;;
25639;SDS011;13497;48.322;16.204;2022-09-20T13:27:49;0.47;;;0.20;;
25639;SDS011;13497;48.322;16.204;2022-09-20T13:32:56;0.20;;;0.20;;
25639;SDS011;13497;48.322;16.204;2022-09-20T13:35:38;0.90;;;0.17;;
25639;SDS011;13497;48.322;16.204;2022-09-20T13:38:05;0.15;;;0.10;;
25639;SDS011;13497;48.322;16.204;2022-09-20T13:43:01;0.15;;;0.15;;
25639;SDS011;13497;48.322;16.204;2022-09-20T13:45:46;0.10;;;0.10;;
25639;SDS011;13497;48.322;16.204;2022-09-20T13:48:15;0.30;;;0.28;;
25639;SDS011;13497;48.322;16.204;2022-09-20T13:50:40;0.00;;;0.00;;
25639;SDS011;13497;48.322;16.204;2022-09-20T13:53:13;0.20;;;0.10;;
25639;SDS011;13497;48.322;16.204;2022-09-20T13:55:41;0.10;;;0.10;;
25639;SDS011;13497;48.322;16.204;2022-09-20T13:58:27;0.10;;;0.10;;
25639;SDS011;13497;48.322;16.204;2022-09-20T14:00:58;0.00;;;0.00;;
25639;SDS011;13497;48.322;16.204;2022-09-20T14:03:27;0.10;;;0.10;;
25639;SDS011;13497;48.322;16.204;2022-09-20T14:06:08;0.08;;;0.08;;
25639;SDS011;13497;48.322;16.204;2022-09-20T14:08:40;1.17;;;0.80;;
25639;SDS011;13497;48.322;16.204;2022-09-20T14:11:24;0.10;;;0.10;;
25639;SDS011;13497;48.322;16.204;2022-09-20T14:13:53;0.20;;;0.20;;
25639;SDS011;13497;48.322;16.204;2022-09-20T14:16:21;0.88;;;0.35;;
25639;SDS011;13497;48.322;16.204;2022-09-20T14:18:58;0.20;;;0.10;;
25639;SDS011;13497;48.322;16.204;2022-09-20T14:21:26;0.10;;;0.10;;
25639;SDS011;13497;48.322;16.204;2022-09-20T14:26:31;0.10;;;0.10;;
25639;SDS011;13497;48.322;16.204;2022-09-20T14:31:53;0.57;;;0.20;;
25639;SDS011;13497;48.322;16.204;2022-09-20T14:34:21;0.77;;;0.55;;
25639;SDS011;13497;48.322;16.204;2022-09-20T14:36:47;0.10;;;0.10;;
25639;SDS011;13497;48.322;16.204;2022-09-20T14:41:42;0.10;;;0.10;;
25639;SDS011;13497;48.322;16.204;2022-09-20T14:46:55;0.50;;;0.28;;
25639;SDS011;13497;48.322;16.204;2022-09-20T14:51:54;0.35;;;0.28;;
25639;SDS011;13497;48.322;16.204;2022-09-20T14:54:58;0.20;;;0.10;;
25639;SDS011;13497;48.322;16.204;2022-09-20T14:59:53;0.60;;;0.10;;
25639;SDS011;13497;48.322;16.204;2022-09-20T15:02:21;0.10;;;0.10;;
25639;SDS011;13497;48.322;16.204;2022-09-20T15:04:55;0.52;;;0.22;;
25639;SDS011;13497;48.322;16.204;2022-09-20T15:07:24;0.75;;;0.25;;
25639;SDS011;13497;48.322;16.204;2022-09-20T15:09:49;0.30;;;0.20;;
25639;SDS011;13497;48.322;16.204;2022-09-20T15:12:16;0.20;;;0.20;;
25639;SDS011;13497;48.322;16.204;2022-09-20T15:14:43;1.58;;;0.60;;
25639;SDS011;13497;48.322;16.204;2022-09-20T15:17:12;0.45;;;0.35;;
25639;SDS011;13497;48.322;16.204;2022-09-20T15:19:41;0.40;;;0.40;;
25639;SDS011;13497;48.322;16.204;2022-09-20T15:22:07;1.37;;;0.50;;
25639;SDS011;13497;48.322;16.204;2022-09-20T15:24:34;0.55;;;0.40;;
25639;SDS011;13497;48.322;16.204;2022-09-20T15:27:00;0.30;;;0.30;;
25639;SDS011;13497;48.322;16.204;2022-09-20T15:29:27;0.20;;;0.20;;
25639;SDS011;13497;48.322;16.204;2022-09-20T15:31:53;0.20;;;0.20;;
25639;SDS011;13497;48.322;16.204;2022-09-20T15:34:19;0.33;;;0.20;;
25639;SDS011;13497;48.322;16.204;2022-09-20T15:36:45;0.30;;;0.20;;
25639;SDS011;13497;48.322;16.204;2022-09-20T15:39:11;7.47;;;0.40;;
25639;SDS011;13497;48.322;16.204;2022-09-20T15:41:36;0.10;;;0.10;;
25639;SDS011;13497;48.322;16.204;2022-09-20T15:44:03;0.15;;;0.15;;
25639;SDS011;13497;48.322;16.204;2022-09-20T15:46:29;1.23;;;0.60;;
25639;SDS011;13497;48.322;16.204;2022-09-20T15:51:23;0.40;;;0.40;;
25639;SDS011;13497;48.322;16.204;2022-09-20T15:56:36;0.22;;;0.20;;
25639;SDS011;13497;48.322;16.204;2022-09-20T15:59:05;0.28;;;0.20;;
25639;SDS011;13497;48.322;16.204;2022-09-20T16:01:33;0.65;;;0.10;;
25639;SDS011;13497;48.322;16.204;2022-09-20T16:04:07;0.20;;;0.20;;
25639;SDS011;13497;48.322;16.204;2022-09-20T16:06:34;2.30;;;0.40;;
25639;SDS011;13497;48.322;16.204;2022-09-20T16:09:03;1.05;;;0.50;;
25639;SDS011;13497;48.322;16.204;2022-09-20T16:11:29;0.45;;;0.40;;
25639;SDS011;13497;48.322;16.204;2022-09-20T16:13:56;0.60;;;0.40;;
25639;SDS011;13497;48.322;16.204;2022-09-20T16:16:23;0.13;;;0.08;;
25639;SDS011;13497;48.322;16.204;2022-09-20T16:18:50;0.17;;;0.10;;
25639;SDS011;13497;48.322;16.204;2022-09-20T16:21:35;0.10;;;0.10;;
25639;SDS011;13497;48.322;16.204;2022-09-20T16:24:03;0.60;;;0.15;;
25639;SDS011;13497;48.322;16.204;2022-09-20T16:26:30;0.10;;;0.10;;
25639;SDS011;13497;48.322;16.204;2022-09-20T16:28:56;0.25;;;0.22;;
25639;SDS011;13497;48.322;16.204;2022-09-20T16:36:40;0.17;;;0.10;;
25639;SDS011;13497;48.322;16.204;2022-09-20T16:39:07;0.20;;;0.20;;
25639;SDS011;13497;48.322;16.204;2022-09-20T16:41:33;0.35;;;0.35;;
25639;SDS011;13497;48.322;16.204;2022-09-20T16:44:00;0.20;;;0.20;;
25639;SDS011;13497;48.322;16.204;2022-09-20T16:46:26;0.63;;;0.22;;
25639;SDS011;13497;48.322;16.204;2022-09-20T16:48:55;0.10;;;0.10;;
25639;SDS011;13497;48.322;16.204;2022-09-20T16:51:25;0.52;;;0.40;;
25639;SDS011;13497;48.322;16.204;2022-09-20T16:53:55;0.52;;;0.40;;
25639;SDS011;13497;48.322;16.204;2022-09-20T16:56:24;0.13;;;0.13;;
25639;SDS011;13497;48.322;16.204;2022-09-20T16:58:52;0.20;;;0.20;;
25639;SDS011;13497;48.322;16.204;2022-09-20T17:01:18;0.20;;;0.17;;
25639;SDS011;13497;48.322;16.204;2022-09-20T17:03:44;0.38;;;0.20;;
25639;SDS011;13497;48.322;16.204;2022-09-20T17:08:37;0.52;;;0.47;;
25639;SDS011;13497;48.322;16.204;2022-09-20T17:13:38;4.13;;;1.13;;
25639;SDS011;13497;48.322;16.204;2022-09-20T17:16:05;1.50;;;0.98;;
25639;SDS011;13497;48.322;16.204;2022-09-20T17:18:35;1.02;;;0.90;;
25639;SDS011;13497;48.322;16.204;2022-09-20T17:21:06;1.40;;;0.47;;
25639;SDS011;13497;48.322;16.204;2022-09-20T17:23:32;0.30;;;0.20;;
25639;SDS011;13497;48.322;16.204;2022-09-20T17:26:05;0.60;;;0.40;;
25639;SDS011;13497;48.322;16.204;2022-09-20T17:28:36;0.70;;;0.30;;
25639;SDS011;13497;48.322;16.204;2022-09-20T17:31:03;0.20;;;0.20;;
25639;SDS011;13497;48.322;16.204;2022-09-20T17:33:31;1.80;;;0.80;;
25639;SDS011;13497;48.322;16.204;2022-09-20T17:35:57;0.60;;;0.30;;
25639;SDS011;13497;48.322;16.204;2022-09-20T17:38:28;0.85;;;0.43;;
25639;SDS011;13497;48.322;16.204;2022-09-20T17:41:37;0.70;;;0.35;;
25639;SDS011;13497;48.322;16.204;2022-09-20T17:43:44;2.35;;;0.60;;
25639;SDS011;13497;48.322;16.204;2022-09-20T17:46:14;0.50;;;0.47;;
25639;SDS011;13497;48.322;16.204;2022-09-20T17:48:44;2.25;;;0.90;;
25639;SDS011;13497;48.322;16.204;2022-09-20T17:51:15;0.88;;;0.50;;
25639;SDS011;13497;48.322;16.204;2022-09-20T17:53:42;0.30;;;0.30;;
25639;SDS011;13497;48.322;16.204;2022-09-20T17:56:09;0.65;;;0.20;;
25639;SDS011;13497;48.322;16.204;2022-09-20T17:58:36;1.02;;;0.50;;
25639;SDS011;13497;48.322;16.204;2022-09-20T18:01:06;2.90;;;0.50;;
25639;SDS011;13497;48.322;16.204;2022-09-20T18:03:38;1.00;;;0.60;;
25639;SDS011;13497;48.322;16.204;2022-09-20T18:06:10;0.25;;;0.25;;
25639;SDS011;13497;48.322;16.204;2022-09-20T18:08:39;0.32;;;0.30;;
25639;SDS011;13497;48.322;16.204;2022-09-20T18:11:05;0.32;;;0.20;;
25639;SDS011;13497;48.322;16.204;2022-09-20T18:15:58;0.30;;;0.20;;
25639;SDS011;13497;48.322;16.204;2022-09-20T18:18:24;0.20;;;0.20;;
25639;SDS011;13497;48.322;16.204;2022-09-20T18:20:51;0.17;;;0.10;;
25639;SDS011;13497;48.322;16.204;2022-09-20T18:23:17;0.13;;;0.10;;
25639;SDS011;13497;48.322;16.204;2022-09-20T18:25:43;0.10;;;0.10;;
25639;SDS011;13497;48.322;16.204;2022-09-20T18:28:27;0.32;;;0.22;;
25639;SDS011;13497;48.322;16.204;2022-09-20T18:31:00;0.30;;;0.20;;
25639;SDS011;13497;48.322;16.204;2022-09-20T18:33:27;4.28;;;0.38;;
25639;SDS011;13497;48.322;16.204;2022-09-20T18:35:58;10.63;;;3.97;;
25639;SDS011;13497;48.322;16.204;2022-09-20T18:38:24;6.15;;;4.05;;
25639;SDS011;13497;48.322;16.204;2022-09-20T18:40:54;6.70;;;3.60;;
25639;SDS011;13497;48.322;16.204;2022-09-20T18:43:33;91.63;;;25.50;;
25639;SDS011;13497;48.322;16.204;2022-09-20T18:45:59;35.05;;;11.65;;
25639;SDS011;13497;48.322;16.204;2022-09-20T18:48:25;2.73;;;1.93;;
25639;SDS011;13497;48.322;16.204;2022-09-20T18:53:28;0.65;;;0.45;;
25639;SDS011;13497;48.322;16.204;2022-09-20T18:56:04;0.80;;;0.55;;
25639;SDS011;13497;48.322;16.204;2022-09-20T18:58:34;0.68;;;0.40;;
25639;SDS011;13497;48.322;16.204;2022-09-20T19:12:10;0.82;;;0.30;;
25639;SDS011;13497;48.322;16.204;2022-09-20T19:17:12;0.33;;;0.30;;
25639;SDS011;13497;48.322;16.204;2022-09-20T19:19:49;48.92;;;15.13;;
25639;SDS011;13497;48.322;16.204;2022-09-20T19:22:36;3.85;;;2.03;;
25639;SDS011;13497;48.322;16.204;2022-09-20T19:25:24;3.40;;;2.33;;
25639;SDS011;13497;48.322;16.204;2022-09-20T19:28:05;3.55;;;1.77;;
25639;SDS011;13497;48.322;16.204;2022-09-20T19:30:35;2.15;;;1.33;;
25639;SDS011;13497;48.322;16.204;2022-09-20T19:33:03;1.20;;;1.00;;
25639;SDS011;13497;48.322;16.204;2022-09-20T19:35:31;0.52;;;0.40;;
25639;SDS011;13497;48.322;16.204;2022-09-20T19:43:37;0.60;;;0.60;;
25639;SDS011;13497;48.322;16.204;2022-09-20T19:48:55;3.38;;;1.75;;
25639;SDS011;13497;48.322;16.204;2022-09-20T19:51:38;24.92;;;8.63;;
25639;SDS011;13497;48.322;16.204;2022-09-20T19:54:10;5.20;;;2.00;;
25639;SDS011;13497;48.322;16.204;2022-09-20T19:56:54;5.63;;;3.40;;
25639;SDS011;13497;48.322;16.204;2022-09-20T19:59:23;2.00;;;1.10;;
25639;SDS011;13497;48.322;16.204;2022-09-20T20:01:50;2.00;;;0.80;;
25639;SDS011;13497;48.322;16.204;2022-09-20T20:04:17;0.70;;;0.65;;
25639;SDS011;13497;48.322;16.204;2022-09-20T20:12:19;1.45;;;0.85;;
25639;SDS011;13497;48.322;16.204;2022-09-20T20:15:07;3.35;;;1.58;;
25639;SDS011;13497;48.322;16.204;2022-09-20T20:20:32;0.80;;;0.68;;
25639;SDS011;13497;48.322;16.204;2022-09-20T20:28:14;10.20;;;3.67;;
25639;SDS011;13497;48.322;16.204;2022-09-20T20:30:40;5.30;;;1.83;;
25639;SDS011;13497;48.322;16.204;2022-09-20T20:35:32;3.58;;;1.55;;
25639;SDS011;13497;48.322;16.204;2022-09-20T20:37:57;3.37;;;1.10;;
25639;SDS011;13497;48.322;16.204;2022-09-20T20:40:23;1.83;;;0.80;;
25639;SDS011;13497;48.322;16.204;2022-09-20T20:42:54;2.40;;;0.90;;
25639;SDS011;13497;48.322;16.204;2022-09-20T20:45:26;1.80;;;1.13;;
25639;SDS011;13497;48.322;16.204;2022-09-20T20:47:55;1.90;;;1.30;;
25639;SDS011;13497;48.322;16.204;2022-09-20T20:50:22;3.70;;;2.00;;
25639;SDS011;13497;48.322;16.204;2022-09-20T20:52:52;5.00;;;1.20;;
25639;SDS011;13497;48.322;16.204;2022-09-20T20:55:19;7.18;;;3.55;;
25639;SDS011;13497;48.322;16.204;2022-09-20T20:57:54;10.07;;;4.77;;
25639;SDS011;13497;48.322;16.204;2022-09-20T21:00:24;1.33;;;0.93;;
25639;SDS011;13497;48.322;16.204;2022-09-20T21:02:57;2.65;;;0.52;;